sensor_id;sensor_type;location;lat;lon;timestamp;pressure;altitude;pressure_sealevel;temperature;humidity
63399;BME280;49533;-34.520;150.798;2023-01-29T00:01:57;100233.41;;;26.13;71.46
63399;BME280;49533;-34.520;150.798;2023-01-29T00:04:25;100236.38;;;26.26;71.14
63399;BME280;49533;-34.520;150.798;2023-01-29T00:06:52;100237.06;;;26.34;71.57
63399;BME280;49533;-34.520;150.798;2023-01-29T00:09:19;100238.53;;;26.42;71.95
63399;BME280;49533;-34.520;150.798;2023-01-29T00:11:46;100239.53;;;26.55;72.31
63399;BME280;49533;-34.520;150.798;2023-01-29T00:14:13;100247.28;;;26.67;72.20
63399;BME280;49533;-34.520;150.798;2023-01-29T00:16:41;100242.09;;;26.70;72.46
63399;BME280;49533;-34.520;150.798;2023-01-29T00:19:08;100258.50;;;26.87;72.74
63399;BME280;49533;-34.520;150.798;2023-01-29T00:21:35;100243.41;;;26.85;72.12
63399;BME280;49533;-34.520;150.798;2023-01-29T00:24:03;100246.84;;;26.93;72.02
63399;BME280;49533;-34.520;150.798;2023-01-29T00:26:30;100248.50;;;26.90;72.18
63399;BME280;49533;-34.520;150.798;2023-01-29T00:28:58;100250.41;;;26.93;72.22
63399;BME280;49533;-34.520;150.798;2023-01-29T00:31:27;100240.53;;;26.88;72.39
63399;BME280;49533;-34.520;150.798;2023-01-29T00:33:54;100239.47;;;26.82;72.53
63399;BME280;49533;-34.520;150.798;2023-01-29T00:36:22;100231.97;;;26.79;72.72
63399;BME280;49533;-34.520;150.798;2023-01-29T00:38:55;100239.50;;;26.79;72.41
63399;BME280;49533;-34.520;150.798;2023-01-29T00:41:26;100239.88;;;26.81;72.57
63399;BME280;49533;-34.520;150.798;2023-01-29T00:44:06;100245.63;;;26.94;72.00
63399;BME280;49533;-34.520;150.798;2023-01-29T00:46:45;100248.91;;;26.88;71.83
63399;BME280;49533;-34.520;150.798;2023-01-29T00:49:12;100253.03;;;26.80;71.89
63399;BME280;49533;-34.520;150.798;2023-01-29T00:51:39;100255.44;;;26.78;72.39
63399;BME280;49533;-34.520;150.798;2023-01-29T00:54:07;100264.31;;;26.73;72.60
63399;BME280;49533;-34.520;150.798;2023-01-29T00:56:35;100266.72;;;26.71;72.31
63399;BME280;49533;-34.520;150.798;2023-01-29T00:59:03;100268.25;;;26.76;72.26
63399;BME280;49533;-34.520;150.798;2023-01-29T01:01:30;100274.59;;;26.76;72.20
63399;BME280;49533;-34.520;150.798;2023-01-29T01:04:10;100266.59;;;26.78;72.09
63399;BME280;49533;-34.520;150.798;2023-01-29T01:06:39;100274.56;;;26.80;72.29
63399;BME280;49533;-34.520;150.798;2023-01-29T01:09:08;100287.72;;;26.79;72.36
63399;BME280;49533;-34.520;150.798;2023-01-29T01:11:47;100275.75;;;26.79;72.41
63399;BME280;49533;-34.520;150.798;2023-01-29T01:14:14;100279.19;;;26.86;72.13
63399;BME280;49533;-34.520;150.798;2023-01-29T01:16:41;100281.19;;;26.86;71.90
63399;BME280;49533;-34.520;150.798;2023-01-29T01:19:10;100290.84;;;26.81;72.04
63399;BME280;49533;-34.520;150.798;2023-01-29T01:21:37;100292.44;;;26.82;72.13
63399;BME280;49533;-34.520;150.798;2023-01-29T01:24:05;100296.06;;;26.79;72.34
63399;BME280;49533;-34.520;150.798;2023-01-29T01:26:32;100293.69;;;26.78;72.30
63399;BME280;49533;-34.520;150.798;2023-01-29T01:29:00;100307.22;;;26.79;72.24
63399;BME280;49533;-34.520;150.798;2023-01-29T01:31:27;100296.88;;;26.76;71.91
63399;BME280;49533;-34.520;150.798;2023-01-29T01:33:54;100306.09;;;26.73;72.15
63399;BME280;49533;-34.520;150.798;2023-01-29T01:36:21;100304.09;;;26.74;72.02
63399;BME280;49533;-34.520;150.798;2023-01-29T01:38:48;100302.13;;;26.74;71.90
63399;BME280;49533;-34.520;150.798;2023-01-29T01:41:18;100302.91;;;26.75;72.19
63399;BME280;49533;-34.520;150.798;2023-01-29T01:43:51;100300.81;;;26.79;71.55
63399;BME280;49533;-34.520;150.798;2023-01-29T01:46:19;100306.28;;;26.86;71.39
63399;BME280;49533;-34.520;150.798;2023-01-29T01:48:51;100310.22;;;26.88;71.56
63399;BME280;49533;-34.520;150.798;2023-01-29T01:51:20;100310.59;;;26.91;71.49
63399;BME280;49533;-34.520;150.798;2023-01-29T01:53:55;100303.38;;;26.93;71.61
63399;BME280;49533;-34.520;150.798;2023-01-29T01:56:29;100306.91;;;26.97;71.72
63399;BME280;49533;-34.520;150.798;2023-01-29T01:59:06;100313.63;;;27.00;71.44
63399;BME280;49533;-34.520;150.798;2023-01-29T02:01:36;100308.41;;;27.02;71.69
63399;BME280;49533;-34.520;150.798;2023-01-29T02:04:10;100310.78;;;27.03;71.27
63399;BME280;49533;-34.520;150.798;2023-01-29T02:06:52;100312.28;;;27.08;71.23
63399;BME280;49533;-34.520;150.798;2023-01-29T02:09:35;100299.44;;;27.14;71.36
63399;BME280;49533;-34.520;150.798;2023-01-29T02:12:09;100292.97;;;27.21;71.34
63399;BME280;49533;-34.520;150.798;2023-01-29T02:14:38;100298.41;;;27.28;71.32
63399;BME280;49533;-34.520;150.798;2023-01-29T02:17:08;100292.91;;;27.24;71.65
63399;BME280;49533;-34.520;150.798;2023-01-29T02:19:57;100292.13;;;27.24;71.65
63399;BME280;49533;-34.520;150.798;2023-01-29T02:22:45;100281.03;;;27.20;71.19
63399;BME280;49533;-34.520;150.798;2023-01-29T02:28:46;100280.88;;;27.27;71.20
63399;BME280;49533;-34.520;150.798;2023-01-29T02:31:30;100286.47;;;27.27;71.20
63399;BME280;49533;-34.520;150.798;2023-01-29T02:34:18;100286.03;;;27.29;71.04
63399;BME280;49533;-34.520;150.798;2023-01-29T02:37:07;100280.97;;;27.24;71.18
63399;BME280;49533;-34.520;150.798;2023-01-29T02:42:30;100285.97;;;27.32;71.24
63399;BME280;49533;-34.520;150.798;2023-01-29T02:45:21;100292.75;;;27.31;71.00
63399;BME280;49533;-34.520;150.798;2023-01-29T02:47:59;100292.75;;;27.31;70.67
63399;BME280;49533;-34.520;150.798;2023-01-29T02:50:37;100293.63;;;27.28;71.14
63399;BME280;49533;-34.520;150.798;2023-01-29T02:53:15;100304.00;;;27.28;71.30
63399;BME280;49533;-34.520;150.798;2023-01-29T02:55:57;100294.41;;;27.29;71.09
63399;BME280;49533;-34.520;150.798;2023-01-29T02:58:40;100289.19;;;27.31;70.82
63399;BME280;49533;-34.520;150.798;2023-01-29T03:01:15;100289.59;;;27.29;70.48
63399;BME280;49533;-34.520;150.798;2023-01-29T03:03:50;100276.03;;;27.31;70.77
63399;BME280;49533;-34.520;150.798;2023-01-29T03:06:30;100280.63;;;27.42;70.83
63399;BME280;49533;-34.520;150.798;2023-01-29T03:09:03;100272.16;;;27.45;71.16
63399;BME280;49533;-34.520;150.798;2023-01-29T03:11:40;100267.72;;;27.48;71.01
63399;BME280;49533;-34.520;150.798;2023-01-29T03:14:13;100255.72;;;27.51;71.09
63399;BME280;49533;-34.520;150.798;2023-01-29T03:16:48;100251.72;;;27.52;71.30
63399;BME280;49533;-34.520;150.798;2023-01-29T03:19:17;100253.63;;;27.55;71.21
63399;BME280;49533;-34.520;150.798;2023-01-29T03:21:54;100246.03;;;27.56;71.07
63399;BME280;49533;-34.520;150.798;2023-01-29T03:24:46;100252.06;;;27.54;71.04
63399;BME280;49533;-34.520;150.798;2023-01-29T03:27:32;100247.00;;;27.49;70.65
63399;BME280;49533;-34.520;150.798;2023-01-29T03:30:14;100242.28;;;27.46;70.38
63399;BME280;49533;-34.520;150.798;2023-01-29T03:32:55;100240.63;;;27.48;69.61
63399;BME280;49533;-34.520;150.798;2023-01-29T03:35:27;100227.88;;;27.47;69.76
63399;BME280;49533;-34.520;150.798;2023-01-29T03:38:04;100234.59;;;27.50;69.68
63399;BME280;49533;-34.520;150.798;2023-01-29T03:40:43;100228.66;;;27.48;69.60
63399;BME280;49533;-34.520;150.798;2023-01-29T03:43:30;100220.66;;;27.50;69.71
63399;BME280;49533;-34.520;150.798;2023-01-29T03:46:10;100226.97;;;27.54;69.68
63399;BME280;49533;-34.520;150.798;2023-01-29T03:49:01;100238.63;;;27.49;69.58
63399;BME280;49533;-34.520;150.798;2023-01-29T03:51:40;100240.63;;;27.48;69.45
63399;BME280;49533;-34.520;150.798;2023-01-29T03:54:17;100238.34;;;27.43;69.83
63399;BME280;49533;-34.520;150.798;2023-01-29T03:56:59;100234.75;;;27.43;69.77
63399;BME280;49533;-34.520;150.798;2023-01-29T03:59:44;100229.53;;;27.45;69.74
63399;BME280;49533;-34.520;150.798;2023-01-29T04:02:19;100239.00;;;27.51;69.43
63399;BME280;49533;-34.520;150.798;2023-01-29T04:04:57;100250.47;;;27.53;69.85
63399;BME280;49533;-34.520;150.798;2023-01-29T04:07:27;100233.56;;;27.44;69.79
63399;BME280;49533;-34.520;150.798;2023-01-29T04:10:08;100247.13;;;27.42;70.17
63399;BME280;49533;-34.520;150.798;2023-01-29T04:12:45;100240.69;;;27.45;69.92
63399;BME280;49533;-34.520;150.798;2023-01-29T04:15:15;100243.06;;;27.46;69.78
63399;BME280;49533;-34.520;150.798;2023-01-29T04:17:49;100247.50;;;27.44;70.08
63399;BME280;49533;-34.520;150.798;2023-01-29T04:20:18;100241.19;;;27.40;69.79
63399;BME280;49533;-34.520;150.798;2023-01-29T04:22:47;100232.47;;;27.38;69.77
63399;BME280;49533;-34.520;150.798;2023-01-29T04:25:18;100236.84;;;27.39;70.01
63399;BME280;49533;-34.520;150.798;2023-01-29T04:28:06;100222.25;;;27.31;69.70
63399;BME280;49533;-34.520;150.798;2023-01-29T04:30:59;100223.13;;;27.28;69.38
63399;BME280;49533;-34.520;150.798;2023-01-29T04:36:41;100227.25;;;27.40;69.67
63399;BME280;49533;-34.520;150.798;2023-01-29T04:39:19;100224.53;;;27.36;69.26
63399;BME280;49533;-34.520;150.798;2023-01-29T04:42:01;100214.03;;;27.44;69.54
63399;BME280;49533;-34.520;150.798;2023-01-29T04:44:42;100218.38;;;27.45;69.62
63399;BME280;49533;-34.520;150.798;2023-01-29T04:47:32;100218.72;;;27.47;69.54
63399;BME280;49533;-34.520;150.798;2023-01-29T04:52:56;100210.94;;;27.38;70.06
63399;BME280;49533;-34.520;150.798;2023-01-29T04:55:39;100210.66;;;27.32;69.69
63399;BME280;49533;-34.520;150.798;2023-01-29T04:58:25;100208.22;;;27.35;69.75
63399;BME280;49533;-34.520;150.798;2023-01-29T05:00:54;100202.28;;;27.32;69.71
63399;BME280;49533;-34.520;150.798;2023-01-29T05:03:25;100202.59;;;27.38;69.70
63399;BME280;49533;-34.520;150.798;2023-01-29T05:05:55;100200.75;;;27.48;69.44
63399;BME280;49533;-34.520;150.798;2023-01-29T05:08:24;100208.81;;;27.46;69.44
63399;BME280;49533;-34.520;150.798;2023-01-29T05:10:55;100199.19;;;27.47;69.30
63399;BME280;49533;-34.520;150.798;2023-01-29T05:13:24;100216.09;;;27.40;69.30
63399;BME280;49533;-34.520;150.798;2023-01-29T05:16:13;100204.94;;;27.40;69.50
63399;BME280;49533;-34.520;150.798;2023-01-29T05:18:42;100220.28;;;27.48;69.33
63399;BME280;49533;-34.520;150.798;2023-01-29T05:21:09;100222.38;;;27.44;69.15
63399;BME280;49533;-34.520;150.798;2023-01-29T05:23:36;100221.81;;;27.32;69.15
63399;BME280;49533;-34.520;150.798;2023-01-29T05:26:04;100220.25;;;27.31;69.66
63399;BME280;49533;-34.520;150.798;2023-01-29T05:28:31;100223.44;;;27.30;69.32
63399;BME280;49533;-34.520;150.798;2023-01-29T05:30:58;100225.47;;;27.29;69.18
63399;BME280;49533;-34.520;150.798;2023-01-29T05:33:27;100233.13;;;27.25;69.61
63399;BME280;49533;-34.520;150.798;2023-01-29T05:35:56;100222.75;;;27.26;69.39
63399;BME280;49533;-34.520;150.798;2023-01-29T05:38:24;100227.47;;;27.29;69.34
63399;BME280;49533;-34.520;150.798;2023-01-29T05:40:52;100219.97;;;27.26;69.69
63399;BME280;49533;-34.520;150.798;2023-01-29T05:43:22;100219.50;;;27.27;69.42
63399;BME280;49533;-34.520;150.798;2023-01-29T05:45:54;100230.16;;;27.32;69.48
63399;BME280;49533;-34.520;150.798;2023-01-29T05:48:22;100221.47;;;27.30;69.46
63399;BME280;49533;-34.520;150.798;2023-01-29T05:50:50;100219.09;;;27.29;69.60
63399;BME280;49533;-34.520;150.798;2023-01-29T05:53:17;100236.75;;;27.22;69.30
63399;BME280;49533;-34.520;150.798;2023-01-29T05:55:45;100230.84;;;27.20;69.61
63399;BME280;49533;-34.520;150.798;2023-01-29T05:58:13;100226.06;;;27.17;69.83
63399;BME280;49533;-34.520;150.798;2023-01-29T06:00:41;100220.56;;;27.14;69.80
63399;BME280;49533;-34.520;150.798;2023-01-29T06:03:08;100214.13;;;27.17;70.08
63399;BME280;49533;-34.520;150.798;2023-01-29T06:05:37;100215.34;;;27.16;69.79
63399;BME280;49533;-34.520;150.798;2023-01-29T06:08:06;100207.13;;;27.08;70.17
63399;BME280;49533;-34.520;150.798;2023-01-29T06:10:33;100220.78;;;27.03;70.32
63399;BME280;49533;-34.520;150.798;2023-01-29T06:13:00;100224.41;;;27.00;70.42
63399;BME280;49533;-34.520;150.798;2023-01-29T06:15:28;100220.03;;;26.99;70.69
63399;BME280;49533;-34.520;150.798;2023-01-29T06:17:56;100216.72;;;27.07;70.21
63399;BME280;49533;-34.520;150.798;2023-01-29T06:20:24;100223.94;;;27.05;70.75
63399;BME280;49533;-34.520;150.798;2023-01-29T06:22:51;100230.81;;;26.97;70.92
63399;BME280;49533;-34.520;150.798;2023-01-29T06:25:18;100246.84;;;26.93;70.90
63399;BME280;49533;-34.520;150.798;2023-01-29T06:27:45;100256.56;;;26.84;71.22
63399;BME280;49533;-34.520;150.798;2023-01-29T06:30:16;100264.97;;;26.81;71.67
63399;BME280;49533;-34.520;150.798;2023-01-29T06:32:43;100272.13;;;26.82;71.85
63399;BME280;49533;-34.520;150.798;2023-01-29T06:35:10;100273.69;;;26.83;71.88
63399;BME280;49533;-34.520;150.798;2023-01-29T06:37:37;100273.28;;;26.84;71.99
63399;BME280;49533;-34.520;150.798;2023-01-29T06:40:04;100278.03;;;26.84;71.98
63399;BME280;49533;-34.520;150.798;2023-01-29T06:42:34;100273.63;;;26.86;71.82
63399;BME280;49533;-34.520;150.798;2023-01-29T06:45:01;100286.00;;;26.85;71.56
63399;BME280;49533;-34.520;150.798;2023-01-29T06:47:29;100281.69;;;26.81;71.58
63399;BME280;49533;-34.520;150.798;2023-01-29T06:49:56;100290.50;;;26.79;71.80
63399;BME280;49533;-34.520;150.798;2023-01-29T06:52:23;100291.31;;;26.76;71.51
63399;BME280;49533;-34.520;150.798;2023-01-29T06:54:55;100297.75;;;26.73;71.57
63399;BME280;49533;-34.520;150.798;2023-01-29T06:57:22;100305.72;;;26.71;72.37
63399;BME280;49533;-34.520;150.798;2023-01-29T06:59:49;100316.06;;;26.74;72.52
63399;BME280;49533;-34.520;150.798;2023-01-29T07:02:16;100308.53;;;26.71;74.39
63399;BME280;49533;-34.520;150.798;2023-01-29T07:04:43;100307.94;;;26.83;73.47
63399;BME280;49533;-34.520;150.798;2023-01-29T07:07:10;100306.09;;;26.97;72.75
63399;BME280;49533;-34.520;150.798;2023-01-29T07:09:40;100308.34;;;27.05;71.86
63399;BME280;49533;-34.520;150.798;2023-01-29T07:12:09;100309.88;;;27.10;71.58
63399;BME280;49533;-34.520;150.798;2023-01-29T07:14:36;100311.81;;;27.13;71.56
63399;BME280;49533;-34.520;150.798;2023-01-29T07:17:03;100317.75;;;27.15;71.24
63399;BME280;49533;-34.520;150.798;2023-01-29T07:19:31;100328.47;;;27.17;71.17
63399;BME280;49533;-34.520;150.798;2023-01-29T07:21:59;100332.03;;;27.17;71.25
63399;BME280;49533;-34.520;150.798;2023-01-29T07:24:28;100334.81;;;27.17;71.40
63399;BME280;49533;-34.520;150.798;2023-01-29T07:26:55;100340.78;;;27.19;71.39
63399;BME280;49533;-34.520;150.798;2023-01-29T07:29:22;100336.81;;;27.20;71.57
63399;BME280;49533;-34.520;150.798;2023-01-29T07:31:49;100353.97;;;27.19;71.32
63399;BME280;49533;-34.520;150.798;2023-01-29T07:34:16;100347.97;;;27.20;71.10
63399;BME280;49533;-34.520;150.798;2023-01-29T07:36:43;100350.75;;;27.20;71.18
63399;BME280;49533;-34.520;150.798;2023-01-29T07:39:10;100361.09;;;27.20;71.01
63399;BME280;49533;-34.520;150.798;2023-01-29T07:41:37;100368.69;;;27.19;71.00
63399;BME280;49533;-34.520;150.798;2023-01-29T07:44:04;100369.91;;;27.18;71.36
63399;BME280;49533;-34.520;150.798;2023-01-29T07:46:31;100386.19;;;27.20;71.15
63399;BME280;49533;-34.520;150.798;2023-01-29T07:48:58;100386.66;;;27.18;71.54
63399;BME280;49533;-34.520;150.798;2023-01-29T07:51:26;100376.28;;;27.19;71.09
63399;BME280;49533;-34.520;150.798;2023-01-29T07:53:54;100378.28;;;27.15;71.13
63399;BME280;49533;-34.520;150.798;2023-01-29T07:56:21;100387.81;;;27.17;71.11
63399;BME280;49533;-34.520;150.798;2023-01-29T07:58:48;100387.03;;;27.17;71.06
63399;BME280;49533;-34.520;150.798;2023-01-29T08:01:15;100396.19;;;27.17;70.99
63399;BME280;49533;-34.520;150.798;2023-01-29T08:03:42;100391.81;;;27.16;70.72
63399;BME280;49533;-34.520;150.798;2023-01-29T08:06:09;100391.81;;;27.16;71.40
63399;BME280;49533;-34.520;150.798;2023-01-29T08:08:36;100400.19;;;27.16;71.21
63399;BME280;49533;-34.520;150.798;2023-01-29T08:11:04;100395.47;;;27.13;71.03
63399;BME280;49533;-34.520;150.798;2023-01-29T08:13:31;100391.44;;;27.14;71.06
63399;BME280;49533;-34.520;150.798;2023-01-29T08:16:00;100388.28;;;27.12;70.91
63399;BME280;49533;-34.520;150.798;2023-01-29T08:18:28;100388.28;;;27.12;70.87
63399;BME280;49533;-34.520;150.798;2023-01-29T08:21:01;100378.38;;;27.11;70.75
63399;BME280;49533;-34.520;150.798;2023-01-29T08:23:29;100385.94;;;27.10;70.98
63399;BME280;49533;-34.520;150.798;2023-01-29T08:25:56;100391.94;;;27.09;70.86
63399;BME280;49533;-34.520;150.798;2023-01-29T08:28:23;100399.09;;;27.10;70.80
63399;BME280;49533;-34.520;150.798;2023-01-29T08:30:51;100395.56;;;27.06;71.15
63399;BME280;49533;-34.520;150.798;2023-01-29T08:33:18;100399.59;;;26.78;73.66
63399;BME280;49533;-34.520;150.798;2023-01-29T08:35:48;100396.28;;;26.59;74.29
63399;BME280;49533;-34.520;150.798;2023-01-29T08:38:17;100383.66;;;26.51;74.85
63399;BME280;49533;-34.520;150.798;2023-01-29T08:40:44;100380.97;;;26.44;74.96
63399;BME280;49533;-34.520;150.798;2023-01-29T08:43:12;100381.44;;;26.39;75.57
63399;BME280;49533;-34.520;150.798;2023-01-29T08:45:41;100380.81;;;26.24;75.79
63399;BME280;49533;-34.520;150.798;2023-01-29T08:48:09;100380.34;;;26.29;75.36
63399;BME280;49533;-34.520;150.798;2023-01-29T08:50:36;100379.25;;;26.23;74.97
63399;BME280;49533;-34.520;150.798;2023-01-29T08:53:05;100387.63;;;26.19;75.24
63399;BME280;49533;-34.520;150.798;2023-01-29T08:55:37;100391.63;;;26.18;75.26
63399;BME280;49533;-34.520;150.798;2023-01-29T08:58:07;100394.03;;;26.16;75.01
63399;BME280;49533;-34.520;150.798;2023-01-29T09:00:36;100391.41;;;26.06;75.58
63399;BME280;49533;-34.520;150.798;2023-01-29T09:03:03;100391.34;;;26.09;75.20
63399;BME280;49533;-34.520;150.798;2023-01-29T09:05:34;100393.34;;;26.09;75.68
63399;BME280;49533;-34.520;150.798;2023-01-29T09:08:02;100401.38;;;26.03;75.82
63399;BME280;49533;-34.520;150.798;2023-01-29T09:10:29;100393.34;;;26.09;75.21
63399;BME280;49533;-34.520;150.798;2023-01-29T09:12:56;100399.75;;;26.06;75.51
63399;BME280;49533;-34.520;150.798;2023-01-29T09:15:23;100398.28;;;25.94;76.13
63399;BME280;49533;-34.520;150.798;2023-01-29T09:17:51;100410.22;;;25.94;76.04
63399;BME280;49533;-34.520;150.798;2023-01-29T09:20:19;100397.50;;;25.93;75.91
63399;BME280;49533;-34.520;150.798;2023-01-29T09:22:46;100396.34;;;25.91;76.06
63399;BME280;49533;-34.520;150.798;2023-01-29T09:25:14;100396.34;;;25.91;75.76
63399;BME280;49533;-34.520;150.798;2023-01-29T09:27:42;100402.75;;;25.88;76.49
63399;BME280;49533;-34.520;150.798;2023-01-29T09:30:10;100407.88;;;25.89;76.17
63399;BME280;49533;-34.520;150.798;2023-01-29T09:32:37;100413.88;;;25.84;76.25
63399;BME280;49533;-34.520;150.798;2023-01-29T09:35:04;100403.94;;;25.87;76.12
63399;BME280;49533;-34.520;150.798;2023-01-29T09:37:31;100388.03;;;25.84;76.66
63399;BME280;49533;-34.520;150.798;2023-01-29T09:39:59;100382.09;;;25.85;76.23
63399;BME280;49533;-34.520;150.798;2023-01-29T09:42:35;100380.91;;;25.83;76.29
63399;BME280;49533;-34.520;150.798;2023-01-29T09:45:14;100387.25;;;25.83;76.49
63399;BME280;49533;-34.520;150.798;2023-01-29T09:47:42;100373.75;;;25.81;76.53
63399;BME280;49533;-34.520;150.798;2023-01-29T09:50:17;100384.03;;;25.88;76.37
63399;BME280;49533;-34.520;150.798;2023-01-29T09:52:53;100387.63;;;25.89;76.00
63399;BME280;49533;-34.520;150.798;2023-01-29T09:55:26;100389.25;;;25.83;76.38
63399;BME280;49533;-34.520;150.798;2023-01-29T09:57:58;100394.38;;;25.84;76.16
63399;BME280;49533;-34.520;150.798;2023-01-29T10:00:31;100399.22;;;25.80;76.57
63399;BME280;49533;-34.520;150.798;2023-01-29T10:09:28;100414.75;;;25.77;75.96
63399;BME280;49533;-34.520;150.798;2023-01-29T10:15:23;100425.06;;;25.77;75.85
63399;BME280;49533;-34.520;150.798;2023-01-29T10:18:26;100438.63;;;25.75;75.78
63399;BME280;49533;-34.520;150.798;2023-01-29T10:21:04;100439.88;;;25.70;76.38
63399;BME280;49533;-34.520;150.798;2023-01-29T10:23:37;100436.28;;;25.70;76.50
63399;BME280;49533;-34.520;150.798;2023-01-29T10:26:11;100436.31;;;25.66;76.52
63399;BME280;49533;-34.520;150.798;2023-01-29T10:28:44;100433.50;;;25.70;76.43
63399;BME280;49533;-34.520;150.798;2023-01-29T10:31:21;100433.16;;;25.64;76.13
63399;BME280;49533;-34.520;150.798;2023-01-29T10:33:53;100429.97;;;25.66;76.26
63399;BME280;49533;-34.520;150.798;2023-01-29T10:36:33;100419.34;;;25.53;76.58
63399;BME280;49533;-34.520;150.798;2023-01-29T10:39:02;100427.75;;;25.46;77.16
63399;BME280;49533;-34.520;150.798;2023-01-29T10:41:47;100436.16;;;25.43;77.36
63399;BME280;49533;-34.520;150.798;2023-01-29T10:45:35;100435.75;;;25.44;76.69
63399;BME280;49533;-34.520;150.798;2023-01-29T10:47:43;100438.16;;;25.38;76.59
63399;BME280;49533;-34.520;150.798;2023-01-29T10:50:27;100440.50;;;25.44;76.35
63399;BME280;49533;-34.520;150.798;2023-01-29T10:53:21;100446.81;;;25.48;76.24
63399;BME280;49533;-34.520;150.798;2023-01-29T10:59:03;100448.84;;;25.44;76.26
63399;BME280;49533;-34.520;150.798;2023-01-29T11:01:33;100447.31;;;25.39;75.92
63399;BME280;49533;-34.520;150.798;2023-01-29T11:04:03;100440.53;;;25.40;76.10
63399;BME280;49533;-34.520;150.798;2023-01-29T11:06:32;100435.75;;;25.41;76.34
63399;BME280;49533;-34.520;150.798;2023-01-29T11:09:27;100428.19;;;25.41;75.73
63399;BME280;49533;-34.520;150.798;2023-01-29T11:12:10;100419.50;;;25.39;75.66
63399;BME280;49533;-34.520;150.798;2023-01-29T11:14:46;100422.72;;;25.34;76.05
63399;BME280;49533;-34.520;150.798;2023-01-29T11:17:17;100419.16;;;25.30;75.71
63399;BME280;49533;-34.520;150.798;2023-01-29T11:19:47;100414.00;;;25.32;75.43
63399;BME280;49533;-34.520;150.798;2023-01-29T11:22:22;100418.38;;;25.29;75.65
63399;BME280;49533;-34.520;150.798;2023-01-29T11:27:46;100404.59;;;25.19;75.77
63399;BME280;49533;-34.520;150.798;2023-01-29T11:30:20;100398.22;;;25.14;75.89
63399;BME280;49533;-34.520;150.798;2023-01-29T11:32:54;100400.97;;;25.18;75.48
63399;BME280;49533;-34.520;150.798;2023-01-29T11:35:24;100399.44;;;25.13;75.97
63399;BME280;49533;-34.520;150.798;2023-01-29T11:37:52;100395.44;;;25.14;76.00
63399;BME280;49533;-34.520;150.798;2023-01-29T11:40:36;100397.97;;;24.94;76.10
63399;BME280;49533;-34.520;150.798;2023-01-29T11:43:17;100397.53;;;25.03;76.30
63399;BME280;49533;-34.520;150.798;2023-01-29T11:45:45;100391.88;;;25.10;75.91
63399;BME280;49533;-34.520;150.798;2023-01-29T11:48:17;100382.75;;;25.10;76.21
63399;BME280;49533;-34.520;150.798;2023-01-29T11:50:52;100374.47;;;25.06;75.88
63399;BME280;49533;-34.520;150.798;2023-01-29T11:53:31;100364.91;;;25.07;75.89
63399;BME280;49533;-34.520;150.798;2023-01-29T11:56:01;100368.13;;;25.02;75.46
63399;BME280;49533;-34.520;150.798;2023-01-29T11:58:31;100369.72;;;25.03;75.55
63399;BME280;49533;-34.520;150.798;2023-01-29T12:01:00;100360.19;;;25.04;75.65
63399;BME280;49533;-34.520;150.798;2023-01-29T12:03:38;100366.94;;;25.03;76.53
63399;BME280;49533;-34.520;150.798;2023-01-29T12:06:20;100380.84;;;25.03;76.54
63399;BME280;49533;-34.520;150.798;2023-01-29T12:08:55;100367.78;;;24.97;76.90
63399;BME280;49533;-34.520;150.798;2023-01-29T12:11:30;100380.91;;;24.96;77.50
63399;BME280;49533;-34.520;150.798;2023-01-29T12:14:00;100379.00;;;24.82;77.80
63399;BME280;49533;-34.520;150.798;2023-01-29T12:16:43;100383.34;;;24.87;77.83
63399;BME280;49533;-34.520;150.798;2023-01-29T12:19:30;100383.75;;;24.85;77.35
63399;BME280;49533;-34.520;150.798;2023-01-29T12:22:07;100379.38;;;24.88;76.52
63399;BME280;49533;-34.520;150.798;2023-01-29T12:27:28;100364.28;;;24.89;77.06
63399;BME280;49533;-34.520;150.798;2023-01-29T12:30:11;100375.81;;;24.84;77.46
63399;BME280;49533;-34.520;150.798;2023-01-29T12:32:55;100359.16;;;24.84;77.52
63399;BME280;49533;-34.520;150.798;2023-01-29T12:35:32;100372.28;;;24.80;77.93
63399;BME280;49533;-34.520;150.798;2023-01-29T12:38:17;100379.44;;;24.77;78.33
63399;BME280;49533;-34.520;150.798;2023-01-29T12:40:50;100373.47;;;24.79;78.05
63399;BME280;49533;-34.520;150.798;2023-01-29T12:43:30;100359.59;;;24.79;77.89
63399;BME280;49533;-34.520;150.798;2023-01-29T12:46:00;100351.19;;;24.86;77.83
63399;BME280;49533;-34.520;150.798;2023-01-29T12:48:33;100339.69;;;24.84;77.26
63399;BME280;49533;-34.520;150.798;2023-01-29T12:51:10;100337.41;;;24.71;78.19
63399;BME280;49533;-34.520;150.798;2023-01-29T12:53:49;100322.28;;;24.76;78.18
63399;BME280;49533;-34.520;150.798;2023-01-29T12:56:33;100328.69;;;24.73;78.43
63399;BME280;49533;-34.520;150.798;2023-01-29T12:59:12;100329.06;;;24.75;78.58
63399;BME280;49533;-34.520;150.798;2023-01-29T13:01:55;100310.78;;;24.74;78.29
63399;BME280;49533;-34.520;150.798;2023-01-29T13:04:39;100305.63;;;24.76;78.40
63399;BME280;49533;-34.520;150.798;2023-01-29T13:07:14;100306.44;;;24.73;79.04
63399;BME280;49533;-34.520;150.798;2023-01-29T13:09:48;100301.34;;;24.64;78.60
63399;BME280;49533;-34.520;150.798;2023-01-29T13:12:17;100298.25;;;24.55;79.01
63399;BME280;49533;-34.520;150.798;2023-01-29T13:14:58;100300.28;;;24.44;79.84
63399;BME280;49533;-34.520;150.798;2023-01-29T13:17:35;100298.69;;;24.50;79.68
63399;BME280;49533;-34.520;150.798;2023-01-29T13:22:51;100308.16;;;24.60;78.75